createdAt,value
2023-04-07T00:00:55.538Z,79.00
2023-04-07T00:15:46.410Z,78.68
2023-04-07T00:30:37.776Z,77.90
2023-04-07T00:45:28.827Z,76.08
2023-04-07T01:00:19.845Z,75.95
2023-04-07T01:15:12.039Z,76.53
2023-04-07T02:44:16.931Z,79.18
2023-04-07T02:59:06.686Z,79.78
2023-04-07T03:13:57.031Z,79.59
2023-04-07T03:28:47.797Z,79.13
2023-04-07T03:43:38.728Z,79.40
2023-04-07T03:58:29.759Z,79.75
2023-04-07T04:13:20.545Z,81.03
2023-04-07T04:28:11.008Z,82.58
2023-04-07T04:43:02.036Z,82.58
2023-04-07T04:57:52.468Z,82.00
2023-04-07T05:12:43.834Z,82.24
2023-04-07T05:27:35.703Z,80.76
2023-04-07T05:42:25.812Z,80.79
2023-04-07T05:57:16.403Z,79.65
2023-04-07T06:12:08.001Z,78.48
2023-04-07T06:26:58.805Z,77.36
2023-04-07T06:41:49.408Z,76.91
2023-04-07T06:56:41.703Z,75.58
2023-04-07T07:11:32.727Z,73.32
2023-04-07T07:26:24.600Z,71.96
2023-04-07T07:41:15.992Z,72.30
2023-04-07T07:56:06.625Z,71.83
2023-04-07T08:40:40.912Z,68.86
2023-04-07T09:10:24.589Z,67.45
2023-04-07T10:09:51.978Z,61.95
2023-04-07T12:09:29.985Z,50.86
2023-04-07T12:24:24.191Z,47.83
2023-04-07T12:54:33.163Z,65.20
2023-04-07T13:24:12.786Z,67.85
2023-04-07T13:39:03.955Z,68.54
2023-04-07T13:53:55.416Z,68.59
2023-04-07T14:08:47.180Z,65.64
2023-04-07T14:23:39.620Z,64.75
2023-04-07T14:38:34.705Z,64.83
2023-04-07T14:53:22.532Z,65.45
2023-04-07T15:08:12.329Z,68.58
2023-04-07T15:23:01.771Z,70.98
2023-04-07T15:37:51.360Z,73.68
2023-04-07T15:52:42.508Z,73.75
2023-04-07T16:07:34.630Z,73.53
2023-04-07T16:22:29.629Z,73.18
2023-04-07T16:37:22.733Z,72.73
2023-04-07T16:52:13.238Z,71.52
2023-04-07T17:07:03.931Z,71.22
2023-04-07T17:21:54.483Z,69.46
2023-04-07T17:36:45.055Z,66.52
2023-04-07T17:51:36.613Z,66.97
2023-04-07T18:06:27.810Z,68.38
2023-04-07T18:21:18.587Z,69.71
2023-04-07T18:36:09.648Z,71.37
2023-04-07T18:51:00.553Z,70.47
2023-04-07T19:05:52.792Z,70.26
2023-04-07T19:20:43.498Z,70.76
2023-04-07T19:35:34.698Z,71.37
2023-04-07T19:50:25.798Z,71.75
2023-04-07T20:20:08.424Z,71.05
2023-04-07T21:04:42.067Z,73.14
2023-04-07T21:19:32.619Z,73.78
2023-04-07T21:49:24.706Z,74.31
2023-04-07T22:04:16.934Z,74.66
2023-04-07T22:19:09.252Z,74.54
2023-04-07T22:33:59.854Z,74.38
2023-04-07T22:48:51.966Z,78.15
2023-04-07T23:03:43.046Z,81.18
2023-04-07T23:18:33.973Z,83.94
2023-04-07T23:33:25.652Z,86.00
2023-04-07T23:48:16.433Z,87.79
